sensor_id;sensor_type;location;lat;lon;timestamp;temperature;humidity
31542;DHT22;18152;49.986;8.646;2023-07-29T00:01:30;17.80;99.90
31542;DHT22;18152;49.986;8.646;2023-07-29T00:03:56;17.80;99.90
31542;DHT22;18152;49.986;8.646;2023-07-29T00:06:21;17.80;99.90
31542;DHT22;18152;49.986;8.646;2023-07-29T00:08:47;17.80;99.90
31542;DHT22;18152;49.986;8.646;2023-07-29T00:11:12;17.80;99.90
31542;DHT22;18152;49.986;8.646;2023-07-29T00:13:38;17.80;99.90
31542;DHT22;18152;49.986;8.646;2023-07-29T00:16:04;17.80;99.90
31542;DHT22;18152;49.986;8.646;2023-07-29T00:18:29;17.80;99.90
31542;DHT22;18152;49.986;8.646;2023-07-29T00:20:56;17.90;99.90
31542;DHT22;18152;49.986;8.646;2023-07-29T00:23:23;17.90;99.90
31542;DHT22;18152;49.986;8.646;2023-07-29T00:25:48;17.90;99.90
31542;DHT22;18152;49.986;8.646;2023-07-29T00:28:14;17.90;99.90
31542;DHT22;18152;49.986;8.646;2023-07-29T00:30:39;17.90;99.90
31542;DHT22;18152;49.986;8.646;2023-07-29T00:33:05;17.90;99.90
31542;DHT22;18152;49.986;8.646;2023-07-29T00:35:30;17.90;99.90
31542;DHT22;18152;49.986;8.646;2023-07-29T00:37:56;17.90;99.90
31542;DHT22;18152;49.986;8.646;2023-07-29T00:40:22;17.90;99.90
31542;DHT22;18152;49.986;8.646;2023-07-29T00:42:48;17.90;99.90
31542;DHT22;18152;49.986;8.646;2023-07-29T00:45:14;17.90;99.90
31542;DHT22;18152;49.986;8.646;2023-07-29T00:47:41;17.80;99.90
31542;DHT22;18152;49.986;8.646;2023-07-29T00:50:09;17.80;99.90
31542;DHT22;18152;49.986;8.646;2023-07-29T00:52:35;17.80;99.90
31542;DHT22;18152;49.986;8.646;2023-07-29T00:55:01;17.80;99.90
31542;DHT22;18152;49.986;8.646;2023-07-29T00:57:29;17.90;99.90
31542;DHT22;18152;49.986;8.646;2023-07-29T00:59:55;17.80;99.90
31542;DHT22;18152;49.986;8.646;2023-07-29T01:02:21;17.70;99.90
31542;DHT22;18152;49.986;8.646;2023-07-29T01:04:54;17.80;99.90
31542;DHT22;18152;49.986;8.646;2023-07-29T01:07:30;17.70;99.90
31542;DHT22;18152;49.986;8.646;2023-07-29T01:10:05;17.70;99.90
31542;DHT22;18152;49.986;8.646;2023-07-29T01:12:48;17.70;99.90
31542;DHT22;18152;49.986;8.646;2023-07-29T01:15:19;17.70;99.90
31542;DHT22;18152;49.986;8.646;2023-07-29T01:18:04;17.70;99.90
31542;DHT22;18152;49.986;8.646;2023-07-29T01:20:33;17.70;99.90
31542;DHT22;18152;49.986;8.646;2023-07-29T01:22:59;17.70;99.90
31542;DHT22;18152;49.986;8.646;2023-07-29T01:25:24;17.70;99.90
31542;DHT22;18152;49.986;8.646;2023-07-29T01:27:51;17.70;99.90
31542;DHT22;18152;49.986;8.646;2023-07-29T01:30:17;17.80;99.90
31542;DHT22;18152;49.986;8.646;2023-07-29T01:37:55;17.70;99.90
31542;DHT22;18152;49.986;8.646;2023-07-29T01:40:22;17.70;99.90
31542;DHT22;18152;49.986;8.646;2023-07-29T01:42:49;17.70;99.90
31542;DHT22;18152;49.986;8.646;2023-07-29T01:45:15;17.70;99.90
31542;DHT22;18152;49.986;8.646;2023-07-29T01:47:40;17.70;99.90
31542;DHT22;18152;49.986;8.646;2023-07-29T01:50:07;17.70;99.90
31542;DHT22;18152;49.986;8.646;2023-07-29T01:52:33;17.80;99.90
31542;DHT22;18152;49.986;8.646;2023-07-29T01:54:58;17.70;99.90
31542;DHT22;18152;49.986;8.646;2023-07-29T01:57:24;17.70;99.90
31542;DHT22;18152;49.986;8.646;2023-07-29T01:59:50;17.70;99.90
31542;DHT22;18152;49.986;8.646;2023-07-29T02:02:16;17.70;99.90
31542;DHT22;18152;49.986;8.646;2023-07-29T02:04:41;17.80;99.90
31542;DHT22;18152;49.986;8.646;2023-07-29T02:07:07;17.70;99.90
31542;DHT22;18152;49.986;8.646;2023-07-29T02:09:32;17.80;99.90
31542;DHT22;18152;49.986;8.646;2023-07-29T02:11:58;17.80;99.90
31542;DHT22;18152;49.986;8.646;2023-07-29T02:14:23;17.80;99.90
31542;DHT22;18152;49.986;8.646;2023-07-29T02:16:49;17.80;99.90
31542;DHT22;18152;49.986;8.646;2023-07-29T02:19:15;17.80;99.90
31542;DHT22;18152;49.986;8.646;2023-07-29T02:21:41;17.80;99.90
31542;DHT22;18152;49.986;8.646;2023-07-29T02:24:06;17.90;99.90
31542;DHT22;18152;49.986;8.646;2023-07-29T02:26:32;17.80;99.90
31542;DHT22;18152;49.986;8.646;2023-07-29T02:28:57;18.00;99.90
31542;DHT22;18152;49.986;8.646;2023-07-29T02:31:24;17.90;99.90
31542;DHT22;18152;49.986;8.646;2023-07-29T02:33:50;17.80;99.90
31542;DHT22;18152;49.986;8.646;2023-07-29T02:36:16;17.80;99.90
31542;DHT22;18152;49.986;8.646;2023-07-29T02:38:42;17.80;99.90
31542;DHT22;18152;49.986;8.646;2023-07-29T02:41:08;17.80;99.90
31542;DHT22;18152;49.986;8.646;2023-07-29T02:43:35;17.80;99.90
31542;DHT22;18152;49.986;8.646;2023-07-29T02:46:02;17.90;99.90
31542;DHT22;18152;49.986;8.646;2023-07-29T02:48:28;17.90;99.90
31542;DHT22;18152;49.986;8.646;2023-07-29T02:50:54;17.90;99.90
31542;DHT22;18152;49.986;8.646;2023-07-29T02:53:19;17.90;99.90
31542;DHT22;18152;49.986;8.646;2023-07-29T02:55:45;17.90;99.90
31542;DHT22;18152;49.986;8.646;2023-07-29T02:58:11;17.90;99.90
31542;DHT22;18152;49.986;8.646;2023-07-29T03:00:36;17.90;99.90
31542;DHT22;18152;49.986;8.646;2023-07-29T03:03:02;17.80;99.90
31542;DHT22;18152;49.986;8.646;2023-07-29T03:05:27;17.80;99.90
31542;DHT22;18152;49.986;8.646;2023-07-29T03:07:53;17.80;99.90
31542;DHT22;18152;49.986;8.646;2023-07-29T03:10:19;17.80;99.90
31542;DHT22;18152;49.986;8.646;2023-07-29T03:12:44;17.80;99.90
31542;DHT22;18152;49.986;8.646;2023-07-29T03:15:11;17.80;99.90
31542;DHT22;18152;49.986;8.646;2023-07-29T03:17:37;17.70;99.90
31542;DHT22;18152;49.986;8.646;2023-07-29T03:20:02;17.70;99.90
31542;DHT22;18152;49.986;8.646;2023-07-29T03:22:28;17.70;99.90
31542;DHT22;18152;49.986;8.646;2023-07-29T03:24:53;17.60;99.90
31542;DHT22;18152;49.986;8.646;2023-07-29T03:27:19;17.60;99.90
31542;DHT22;18152;49.986;8.646;2023-07-29T03:29:44;17.60;99.90
31542;DHT22;18152;49.986;8.646;2023-07-29T03:32:11;17.60;99.90
31542;DHT22;18152;49.986;8.646;2023-07-29T03:34:36;17.50;99.90
31542;DHT22;18152;49.986;8.646;2023-07-29T03:37:02;17.50;99.90
31542;DHT22;18152;49.986;8.646;2023-07-29T03:39:28;17.50;99.90
31542;DHT22;18152;49.986;8.646;2023-07-29T03:41:53;17.50;99.90
31542;DHT22;18152;49.986;8.646;2023-07-29T03:44:19;17.40;99.90
31542;DHT22;18152;49.986;8.646;2023-07-29T03:46:45;17.50;99.90
31542;DHT22;18152;49.986;8.646;2023-07-29T03:49:10;17.50;99.90
31542;DHT22;18152;49.986;8.646;2023-07-29T03:51:36;17.50;99.90
31542;DHT22;18152;49.986;8.646;2023-07-29T03:54:02;17.50;99.90
31542;DHT22;18152;49.986;8.646;2023-07-29T03:56:27;17.50;99.90
31542;DHT22;18152;49.986;8.646;2023-07-29T03:58:53;17.50;99.90
31542;DHT22;18152;49.986;8.646;2023-07-29T04:01:19;17.50;99.90
31542;DHT22;18152;49.986;8.646;2023-07-29T04:03:45;17.50;99.90
31542;DHT22;18152;49.986;8.646;2023-07-29T04:06:14;17.50;99.90
31542;DHT22;18152;49.986;8.646;2023-07-29T04:08:39;17.40;99.90
31542;DHT22;18152;49.986;8.646;2023-07-29T04:11:06;17.40;99.90
31542;DHT22;18152;49.986;8.646;2023-07-29T04:13:31;17.40;99.90
31542;DHT22;18152;49.986;8.646;2023-07-29T04:15:57;17.40;99.90
31542;DHT22;18152;49.986;8.646;2023-07-29T04:18:23;17.40;99.90
31542;DHT22;18152;49.986;8.646;2023-07-29T04:20:48;17.40;99.90
31542;DHT22;18152;49.986;8.646;2023-07-29T04:23:14;17.40;99.90
31542;DHT22;18152;49.986;8.646;2023-07-29T04:25:39;17.40;99.90
31542;DHT22;18152;49.986;8.646;2023-07-29T04:28:05;17.30;99.90
31542;DHT22;18152;49.986;8.646;2023-07-29T04:30:31;17.40;99.90
31542;DHT22;18152;49.986;8.646;2023-07-29T04:32:56;17.30;99.90
31542;DHT22;18152;49.986;8.646;2023-07-29T04:35:22;17.40;99.90
31542;DHT22;18152;49.986;8.646;2023-07-29T04:37:48;17.40;99.90
31542;DHT22;18152;49.986;8.646;2023-07-29T04:40:14;17.40;99.90
31542;DHT22;18152;49.986;8.646;2023-07-29T04:42:40;17.40;99.90
31542;DHT22;18152;49.986;8.646;2023-07-29T04:45:06;17.40;99.90
31542;DHT22;18152;49.986;8.646;2023-07-29T04:47:31;17.40;99.90
31542;DHT22;18152;49.986;8.646;2023-07-29T04:49:57;17.40;99.90
31542;DHT22;18152;49.986;8.646;2023-07-29T04:52:22;17.40;99.90
31542;DHT22;18152;49.986;8.646;2023-07-29T04:54:48;17.40;99.90
31542;DHT22;18152;49.986;8.646;2023-07-29T04:57:13;17.40;99.90
31542;DHT22;18152;49.986;8.646;2023-07-29T04:59:39;17.40;99.90
31542;DHT22;18152;49.986;8.646;2023-07-29T05:02:05;17.50;99.90
31542;DHT22;18152;49.986;8.646;2023-07-29T05:04:30;17.50;99.90
31542;DHT22;18152;49.986;8.646;2023-07-29T05:06:56;17.60;99.90
31542;DHT22;18152;49.986;8.646;2023-07-29T05:09:21;17.60;99.90
31542;DHT22;18152;49.986;8.646;2023-07-29T05:11:47;17.60;99.90
31542;DHT22;18152;49.986;8.646;2023-07-29T05:14:15;17.50;99.90
31542;DHT22;18152;49.986;8.646;2023-07-29T05:16:41;17.60;99.90
31542;DHT22;18152;49.986;8.646;2023-07-29T05:19:07;17.70;99.90
31542;DHT22;18152;49.986;8.646;2023-07-29T05:21:33;17.70;99.90
31542;DHT22;18152;49.986;8.646;2023-07-29T05:23:58;17.80;99.90
31542;DHT22;18152;49.986;8.646;2023-07-29T05:26:24;17.80;99.90
31542;DHT22;18152;49.986;8.646;2023-07-29T05:28:49;17.80;99.90
31542;DHT22;18152;49.986;8.646;2023-07-29T05:31:15;17.90;99.90
31542;DHT22;18152;49.986;8.646;2023-07-29T05:33:40;17.90;99.90
31542;DHT22;18152;49.986;8.646;2023-07-29T05:36:06;18.00;99.90
31542;DHT22;18152;49.986;8.646;2023-07-29T05:38:32;18.00;99.90
31542;DHT22;18152;49.986;8.646;2023-07-29T05:40:57;18.10;99.90
31542;DHT22;18152;49.986;8.646;2023-07-29T05:43:24;18.10;99.90
31542;DHT22;18152;49.986;8.646;2023-07-29T05:45:50;18.10;99.90
31542;DHT22;18152;49.986;8.646;2023-07-29T05:48:16;18.10;99.90
31542;DHT22;18152;49.986;8.646;2023-07-29T05:50:42;18.20;99.90
31542;DHT22;18152;49.986;8.646;2023-07-29T05:53:07;18.20;99.90
31542;DHT22;18152;49.986;8.646;2023-07-29T05:55:33;18.20;99.90
31542;DHT22;18152;49.986;8.646;2023-07-29T05:57:58;18.30;99.90
31542;DHT22;18152;49.986;8.646;2023-07-29T06:00:24;18.30;99.90
31542;DHT22;18152;49.986;8.646;2023-07-29T06:02:49;18.30;99.90
31542;DHT22;18152;49.986;8.646;2023-07-29T06:05:15;18.30;99.90
31542;DHT22;18152;49.986;8.646;2023-07-29T06:07:40;18.30;99.90
31542;DHT22;18152;49.986;8.646;2023-07-29T06:10:10;18.30;99.90
31542;DHT22;18152;49.986;8.646;2023-07-29T06:12:38;18.20;99.90
31542;DHT22;18152;49.986;8.646;2023-07-29T06:15:04;18.20;99.90
31542;DHT22;18152;49.986;8.646;2023-07-29T06:17:30;18.20;99.90
31542;DHT22;18152;49.986;8.646;2023-07-29T06:19:56;18.30;99.90
31542;DHT22;18152;49.986;8.646;2023-07-29T06:22:21;18.30;99.90
31542;DHT22;18152;49.986;8.646;2023-07-29T06:24:47;18.20;99.90
31542;DHT22;18152;49.986;8.646;2023-07-29T06:27:13;18.30;99.90
31542;DHT22;18152;49.986;8.646;2023-07-29T06:29:38;18.30;99.90
31542;DHT22;18152;49.986;8.646;2023-07-29T06:32:04;18.30;99.90
31542;DHT22;18152;49.986;8.646;2023-07-29T06:34:30;18.30;99.90
31542;DHT22;18152;49.986;8.646;2023-07-29T06:36:55;18.40;99.90
31542;DHT22;18152;49.986;8.646;2023-07-29T06:39:21;18.40;99.90
31542;DHT22;18152;49.986;8.646;2023-07-29T06:41:46;18.40;99.90
31542;DHT22;18152;49.986;8.646;2023-07-29T06:44:12;18.40;99.90
31542;DHT22;18152;49.986;8.646;2023-07-29T06:46:38;18.50;99.90
31542;DHT22;18152;49.986;8.646;2023-07-29T06:49:04;18.50;99.90
31542;DHT22;18152;49.986;8.646;2023-07-29T06:51:30;18.60;99.90
31542;DHT22;18152;49.986;8.646;2023-07-29T06:53:59;18.50;99.90
31542;DHT22;18152;49.986;8.646;2023-07-29T06:56:25;18.50;99.90
31542;DHT22;18152;49.986;8.646;2023-07-29T06:58:50;18.40;99.90
31542;DHT22;18152;49.986;8.646;2023-07-29T07:01:16;18.40;99.90
31542;DHT22;18152;49.986;8.646;2023-07-29T07:03:42;18.40;99.90
31542;DHT22;18152;49.986;8.646;2023-07-29T07:06:07;18.40;99.90
31542;DHT22;18152;49.986;8.646;2023-07-29T07:08:33;18.40;99.90
31542;DHT22;18152;49.986;8.646;2023-07-29T07:10:59;18.40;99.90
31542;DHT22;18152;49.986;8.646;2023-07-29T07:13:24;18.40;99.90
31542;DHT22;18152;49.986;8.646;2023-07-29T07:15:50;18.30;99.90
31542;DHT22;18152;49.986;8.646;2023-07-29T07:18:16;18.30;99.90
31542;DHT22;18152;49.986;8.646;2023-07-29T07:20:41;18.20;99.90
31542;DHT22;18152;49.986;8.646;2023-07-29T07:23:07;18.30;99.90
31542;DHT22;18152;49.986;8.646;2023-07-29T07:25:36;18.30;99.90
31542;DHT22;18152;49.986;8.646;2023-07-29T07:28:02;18.30;99.90
31542;DHT22;18152;49.986;8.646;2023-07-29T07:30:27;18.30;99.90
31542;DHT22;18152;49.986;8.646;2023-07-29T07:32:53;18.20;99.90
31542;DHT22;18152;49.986;8.646;2023-07-29T07:35:18;18.30;99.90
31542;DHT22;18152;49.986;8.646;2023-07-29T07:37:44;18.40;99.90
31542;DHT22;18152;49.986;8.646;2023-07-29T07:40:10;18.40;99.90
31542;DHT22;18152;49.986;8.646;2023-07-29T07:42:36;18.40;99.90
31542;DHT22;18152;49.986;8.646;2023-07-29T07:45:02;18.40;99.90
31542;DHT22;18152;49.986;8.646;2023-07-29T07:47:27;18.40;99.90
31542;DHT22;18152;49.986;8.646;2023-07-29T07:49:53;18.40;99.90
31542;DHT22;18152;49.986;8.646;2023-07-29T07:52:18;18.40;99.90
31542;DHT22;18152;49.986;8.646;2023-07-29T07:54:44;18.50;99.90
31542;DHT22;18152;49.986;8.646;2023-07-29T07:57:09;18.50;99.90
31542;DHT22;18152;49.986;8.646;2023-07-29T07:59:35;18.50;99.90
31542;DHT22;18152;49.986;8.646;2023-07-29T08:02:00;18.60;99.90
31542;DHT22;18152;49.986;8.646;2023-07-29T08:04:26;18.60;99.90
31542;DHT22;18152;49.986;8.646;2023-07-29T08:06:52;18.60;99.90
31542;DHT22;18152;49.986;8.646;2023-07-29T08:09:17;18.60;99.90
31542;DHT22;18152;49.986;8.646;2023-07-29T08:11:43;18.60;99.90
31542;DHT22;18152;49.986;8.646;2023-07-29T08:14:08;18.70;99.90
31542;DHT22;18152;49.986;8.646;2023-07-29T08:16:34;18.70;99.90
31542;DHT22;18152;49.986;8.646;2023-07-29T08:18:59;18.90;99.90
31542;DHT22;18152;49.986;8.646;2023-07-29T08:21:26;19.30;99.90
31542;DHT22;18152;49.986;8.646;2023-07-29T08:23:52;19.60;99.90
31542;DHT22;18152;49.986;8.646;2023-07-29T08:26:17;19.90;99.90
31542;DHT22;18152;49.986;8.646;2023-07-29T08:28:43;19.70;99.90
31542;DHT22;18152;49.986;8.646;2023-07-29T08:31:09;19.60;99.90
31542;DHT22;18152;49.986;8.646;2023-07-29T08:33:34;19.80;99.90
31542;DHT22;18152;49.986;8.646;2023-07-29T08:36:00;19.90;99.90
31542;DHT22;18152;49.986;8.646;2023-07-29T08:38:26;20.10;99.90
31542;DHT22;18152;49.986;8.646;2023-07-29T08:43:50;20.70;99.90
31542;DHT22;18152;49.986;8.646;2023-07-29T08:46:19;21.00;99.90
31542;DHT22;18152;49.986;8.646;2023-07-29T08:48:46;21.20;99.90
31542;DHT22;18152;49.986;8.646;2023-07-29T08:51:12;21.10;99.90
31542;DHT22;18152;49.986;8.646;2023-07-29T08:53:39;21.20;99.90
31542;DHT22;18152;49.986;8.646;2023-07-29T08:56:06;21.30;99.90
31542;DHT22;18152;49.986;8.646;2023-07-29T08:58:32;21.20;99.90
31542;DHT22;18152;49.986;8.646;2023-07-29T09:00:58;21.10;99.90
31542;DHT22;18152;49.986;8.646;2023-07-29T09:03:23;21.10;99.90
31542;DHT22;18152;49.986;8.646;2023-07-29T09:05:49;21.60;99.90
31542;DHT22;18152;49.986;8.646;2023-07-29T09:08:16;21.90;99.90
31542;DHT22;18152;49.986;8.646;2023-07-29T09:10:41;22.00;99.90
31542;DHT22;18152;49.986;8.646;2023-07-29T09:13:07;22.00;99.90
31542;DHT22;18152;49.986;8.646;2023-07-29T09:15:36;21.80;99.90
31542;DHT22;18152;49.986;8.646;2023-07-29T09:18:14;21.50;99.90
31542;DHT22;18152;49.986;8.646;2023-07-29T09:20:40;21.30;99.90
31542;DHT22;18152;49.986;8.646;2023-07-29T09:23:08;21.30;99.90
31542;DHT22;18152;49.986;8.646;2023-07-29T09:25:36;21.30;99.90
31542;DHT22;18152;49.986;8.646;2023-07-29T09:28:08;21.00;99.90
31542;DHT22;18152;49.986;8.646;2023-07-29T09:30:33;21.00;99.90
31542;DHT22;18152;49.986;8.646;2023-07-29T09:32:59;21.40;99.90
31542;DHT22;18152;49.986;8.646;2023-07-29T09:35:30;21.50;99.90
31542;DHT22;18152;49.986;8.646;2023-07-29T09:37:58;21.40;99.90
31542;DHT22;18152;49.986;8.646;2023-07-29T09:40:25;21.50;99.90
31542;DHT22;18152;49.986;8.646;2023-07-29T09:42:54;21.30;99.90
31542;DHT22;18152;49.986;8.646;2023-07-29T09:45:25;21.90;99.90
31542;DHT22;18152;49.986;8.646;2023-07-29T09:47:51;21.90;99.90
31542;DHT22;18152;49.986;8.646;2023-07-29T09:50:17;21.60;99.90
31542;DHT22;18152;49.986;8.646;2023-07-29T09:52:43;21.10;99.90
31542;DHT22;18152;49.986;8.646;2023-07-29T09:55:13;21.00;99.90
31542;DHT22;18152;49.986;8.646;2023-07-29T09:57:40;21.00;99.90
31542;DHT22;18152;49.986;8.646;2023-07-29T10:00:06;20.90;99.90
31542;DHT22;18152;49.986;8.646;2023-07-29T10:02:41;21.00;99.90
31542;DHT22;18152;49.986;8.646;2023-07-29T10:05:08;21.10;99.90
31542;DHT22;18152;49.986;8.646;2023-07-29T10:07:38;21.40;99.90
31542;DHT22;18152;49.986;8.646;2023-07-29T10:10:05;22.10;99.90
31542;DHT22;18152;49.986;8.646;2023-07-29T10:12:31;22.40;99.90
31542;DHT22;18152;49.986;8.646;2023-07-29T10:15:05;22.70;99.90
31542;DHT22;18152;49.986;8.646;2023-07-29T10:17:34;23.20;99.90
31542;DHT22;18152;49.986;8.646;2023-07-29T10:20:00;24.00;99.90
31542;DHT22;18152;49.986;8.646;2023-07-29T10:22:34;24.20;99.90
31542;DHT22;18152;49.986;8.646;2023-07-29T10:25:04;24.10;99.90
31542;DHT22;18152;49.986;8.646;2023-07-29T10:27:41;23.80;99.90
31542;DHT22;18152;49.986;8.646;2023-07-29T10:30:08;23.90;99.90
31542;DHT22;18152;49.986;8.646;2023-07-29T10:32:34;24.30;99.90
31542;DHT22;18152;49.986;8.646;2023-07-29T10:35:00;24.60;99.90
31542;DHT22;18152;49.986;8.646;2023-07-29T10:37:26;25.10;99.90
31542;DHT22;18152;49.986;8.646;2023-07-29T10:39:53;25.70;99.90
31542;DHT22;18152;49.986;8.646;2023-07-29T10:42:19;25.20;99.90
31542;DHT22;18152;49.986;8.646;2023-07-29T10:44:50;25.80;99.90
31542;DHT22;18152;49.986;8.646;2023-07-29T10:49:47;26.10;99.90
31542;DHT22;18152;49.986;8.646;2023-07-29T10:52:13;26.30;99.90
31542;DHT22;18152;49.986;8.646;2023-07-29T10:54:43;26.30;99.90
31542;DHT22;18152;49.986;8.646;2023-07-29T10:57:13;25.90;99.90
31542;DHT22;18152;49.986;8.646;2023-07-29T10:59:39;25.30;99.90
31542;DHT22;18152;49.986;8.646;2023-07-29T11:02:15;25.20;99.90
31542;DHT22;18152;49.986;8.646;2023-07-29T11:04:50;24.80;99.90
31542;DHT22;18152;49.986;8.646;2023-07-29T11:09:45;24.10;99.90
31542;DHT22;18152;49.986;8.646;2023-07-29T11:12:44;23.50;99.90
31542;DHT22;18152;49.986;8.646;2023-07-29T11:17:41;24.40;99.90
31542;DHT22;18152;49.986;8.646;2023-07-29T11:20:07;24.30;99.90
31542;DHT22;18152;49.986;8.646;2023-07-29T11:22:34;24.10;99.90
31542;DHT22;18152;49.986;8.646;2023-07-29T11:24:59;23.60;99.90
31542;DHT22;18152;49.986;8.646;2023-07-29T11:27:25;23.40;99.90
31542;DHT22;18152;49.986;8.646;2023-07-29T11:29:55;23.10;99.90
31542;DHT22;18152;49.986;8.646;2023-07-29T11:32:21;22.80;99.90
31542;DHT22;18152;49.986;8.646;2023-07-29T11:34:47;22.70;99.90
31542;DHT22;18152;49.986;8.646;2023-07-29T11:37:13;22.40;99.90
31542;DHT22;18152;49.986;8.646;2023-07-29T11:39:41;22.30;99.90
31542;DHT22;18152;49.986;8.646;2023-07-29T11:42:11;22.30;99.90
31542;DHT22;18152;49.986;8.646;2023-07-29T11:44:37;22.40;99.90
31542;DHT22;18152;49.986;8.646;2023-07-29T11:47:06;22.20;99.90
31542;DHT22;18152;49.986;8.646;2023-07-29T11:49:33;22.20;99.90
31542;DHT22;18152;49.986;8.646;2023-07-29T11:51:59;22.20;99.90
31542;DHT22;18152;49.986;8.646;2023-07-29T11:54:25;22.20;99.90
31542;DHT22;18152;49.986;8.646;2023-07-29T11:56:51;22.90;99.90
31542;DHT22;18152;49.986;8.646;2023-07-29T11:59:17;23.70;99.90
31542;DHT22;18152;49.986;8.646;2023-07-29T12:01:42;24.70;99.90
31542;DHT22;18152;49.986;8.646;2023-07-29T12:04:08;25.50;99.90
31542;DHT22;18152;49.986;8.646;2023-07-29T12:06:35;25.10;99.90
31542;DHT22;18152;49.986;8.646;2023-07-29T12:09:00;24.90;99.90
31542;DHT22;18152;49.986;8.646;2023-07-29T12:11:26;24.90;99.90
31542;DHT22;18152;49.986;8.646;2023-07-29T12:13:53;25.40;99.90
31542;DHT22;18152;49.986;8.646;2023-07-29T12:16:19;25.70;99.90
31542;DHT22;18152;49.986;8.646;2023-07-29T12:18:45;25.20;99.90
31542;DHT22;18152;49.986;8.646;2023-07-29T12:21:10;25.20;99.90
31542;DHT22;18152;49.986;8.646;2023-07-29T12:23:36;25.00;99.90
31542;DHT22;18152;49.986;8.646;2023-07-29T12:26:02;25.40;99.90
31542;DHT22;18152;49.986;8.646;2023-07-29T12:28:28;25.50;99.90
31542;DHT22;18152;49.986;8.646;2023-07-29T12:30:54;25.80;99.90
31542;DHT22;18152;49.986;8.646;2023-07-29T12:33:35;25.80;99.90
31542;DHT22;18152;49.986;8.646;2023-07-29T12:36:02;25.80;99.90
31542;DHT22;18152;49.986;8.646;2023-07-29T12:38:31;25.20;99.90
31542;DHT22;18152;49.986;8.646;2023-07-29T12:40:56;24.80;99.90
31542;DHT22;18152;49.986;8.646;2023-07-29T12:43:22;24.80;99.90
31542;DHT22;18152;49.986;8.646;2023-07-29T12:45:51;24.40;99.90
31542;DHT22;18152;49.986;8.646;2023-07-29T12:48:17;24.60;99.90
31542;DHT22;18152;49.986;8.646;2023-07-29T12:50:42;24.80;99.90
31542;DHT22;18152;49.986;8.646;2023-07-29T12:53:09;25.20;99.90
31542;DHT22;18152;49.986;8.646;2023-07-29T12:55:37;25.00;99.90
31542;DHT22;18152;49.986;8.646;2023-07-29T12:58:03;25.30;99.90
31542;DHT22;18152;49.986;8.646;2023-07-29T13:00:29;25.40;99.90
31542;DHT22;18152;49.986;8.646;2023-07-29T13:02:54;25.00;99.90
31542;DHT22;18152;49.986;8.646;2023-07-29T13:05:20;25.00;99.90
31542;DHT22;18152;49.986;8.646;2023-07-29T13:07:46;24.50;99.90
31542;DHT22;18152;49.986;8.646;2023-07-29T13:10:12;24.10;99.90
31542;DHT22;18152;49.986;8.646;2023-07-29T13:12:38;24.50;99.90
31542;DHT22;18152;49.986;8.646;2023-07-29T13:15:04;24.90;99.90
31542;DHT22;18152;49.986;8.646;2023-07-29T13:17:30;25.10;99.90
31542;DHT22;18152;49.986;8.646;2023-07-29T13:19:55;24.90;99.90
31542;DHT22;18152;49.986;8.646;2023-07-29T13:22:21;24.80;99.90
31542;DHT22;18152;49.986;8.646;2023-07-29T13:24:47;25.30;99.90
31542;DHT22;18152;49.986;8.646;2023-07-29T13:27:12;25.70;99.90
31542;DHT22;18152;49.986;8.646;2023-07-29T13:29:39;26.00;99.90
31542;DHT22;18152;49.986;8.646;2023-07-29T13:32:05;25.80;99.90
31542;DHT22;18152;49.986;8.646;2023-07-29T13:34:31;25.90;99.90
31542;DHT22;18152;49.986;8.646;2023-07-29T13:36:56;26.20;99.90
31542;DHT22;18152;49.986;8.646;2023-07-29T13:39:22;26.30;99.90
31542;DHT22;18152;49.986;8.646;2023-07-29T13:41:48;26.30;99.90
31542;DHT22;18152;49.986;8.646;2023-07-29T13:44:13;26.10;99.90
31542;DHT22;18152;49.986;8.646;2023-07-29T13:46:39;25.70;99.90
31542;DHT22;18152;49.986;8.646;2023-07-29T13:49:04;26.00;99.90
31542;DHT22;18152;49.986;8.646;2023-07-29T13:51:30;26.00;99.90
31542;DHT22;18152;49.986;8.646;2023-07-29T13:53:56;25.40;99.90
31542;DHT22;18152;49.986;8.646;2023-07-29T13:56:22;25.50;99.90
31542;DHT22;18152;49.986;8.646;2023-07-29T13:58:47;25.60;99.90
31542;DHT22;18152;49.986;8.646;2023-07-29T14:01:13;25.80;99.90
31542;DHT22;18152;49.986;8.646;2023-07-29T14:03:38;25.90;99.90
31542;DHT22;18152;49.986;8.646;2023-07-29T14:06:04;25.70;99.90
31542;DHT22;18152;49.986;8.646;2023-07-29T14:08:30;25.50;99.90
31542;DHT22;18152;49.986;8.646;2023-07-29T14:10:55;25.40;99.90
31542;DHT22;18152;49.986;8.646;2023-07-29T14:13:21;25.50;99.80
31542;DHT22;18152;49.986;8.646;2023-07-29T14:15:46;25.30;99.90
31542;DHT22;18152;49.986;8.646;2023-07-29T14:18:12;25.30;99.90
31542;DHT22;18152;49.986;8.646;2023-07-29T14:20:38;25.30;99.10
31542;DHT22;18152;49.986;8.646;2023-07-29T14:23:04;25.40;99.90
31542;DHT22;18152;49.986;8.646;2023-07-29T14:25:29;25.20;99.90
31542;DHT22;18152;49.986;8.646;2023-07-29T14:27:55;25.30;99.90
31542;DHT22;18152;49.986;8.646;2023-07-29T14:30:21;25.10;99.90
31542;DHT22;18152;49.986;8.646;2023-07-29T14:32:46;25.10;99.90
31542;DHT22;18152;49.986;8.646;2023-07-29T14:35:12;24.80;99.90
31542;DHT22;18152;49.986;8.646;2023-07-29T14:37:38;24.50;99.90
31542;DHT22;18152;49.986;8.646;2023-07-29T14:40:04;24.10;99.90
31542;DHT22;18152;49.986;8.646;2023-07-29T14:42:30;23.70;99.90
31542;DHT22;18152;49.986;8.646;2023-07-29T14:44:56;23.40;99.90
31542;DHT22;18152;49.986;8.646;2023-07-29T14:47:21;23.60;99.90
31542;DHT22;18152;49.986;8.646;2023-07-29T14:49:47;23.70;99.90
31542;DHT22;18152;49.986;8.646;2023-07-29T14:52:12;23.60;99.90
31542;DHT22;18152;49.986;8.646;2023-07-29T14:54:38;23.90;99.90
31542;DHT22;18152;49.986;8.646;2023-07-29T14:57:06;24.20;99.90
31542;DHT22;18152;49.986;8.646;2023-07-29T14:59:32;24.10;99.90
31542;DHT22;18152;49.986;8.646;2023-07-29T15:01:57;23.90;99.90
31542;DHT22;18152;49.986;8.646;2023-07-29T15:04:23;23.70;99.90
31542;DHT22;18152;49.986;8.646;2023-07-29T15:06:49;23.40;99.90
31542;DHT22;18152;49.986;8.646;2023-07-29T15:09:14;23.10;99.90
31542;DHT22;18152;49.986;8.646;2023-07-29T15:11:40;23.00;99.90
31542;DHT22;18152;49.986;8.646;2023-07-29T15:14:06;22.90;99.90
31542;DHT22;18152;49.986;8.646;2023-07-29T15:16:32;23.00;99.90
31542;DHT22;18152;49.986;8.646;2023-07-29T15:18:59;23.40;99.90
31542;DHT22;18152;49.986;8.646;2023-07-29T15:21:25;23.50;99.90
31542;DHT22;18152;49.986;8.646;2023-07-29T15:23:50;23.60;99.90
31542;DHT22;18152;49.986;8.646;2023-07-29T15:26:16;23.80;99.90
31542;DHT22;18152;49.986;8.646;2023-07-29T15:28:41;24.00;99.90
31542;DHT22;18152;49.986;8.646;2023-07-29T15:31:07;24.20;99.90
31542;DHT22;18152;49.986;8.646;2023-07-29T15:33:32;24.00;99.90
31542;DHT22;18152;49.986;8.646;2023-07-29T15:36:00;24.00;99.90
31542;DHT22;18152;49.986;8.646;2023-07-29T15:38:25;23.90;99.90
31542;DHT22;18152;49.986;8.646;2023-07-29T15:40:51;23.80;99.90